Time;durP1;ratioP1;P1;durP2;ratioP2;P2;SDS_P1;SDS_P2;PMS_P1;PMS_P2;Temp;Humidity;BMP_temperature;BMP_pressure;BME280_temperature;BME280_humidity;BME280_pressure;Samples;Min_cycle;Max_cycle;Signal;HPM_P1;HPM_P2
2022/03/11 08:01:49;;;;;;;9.52;6.97;;;;;;;;;;13026791;22;20015;-80
2022/03/11 08:17:06;;;;;;;13.07;10.10;;;;;;;;;;12821473;23;20084;-76
2022/03/11 08:22:28;;;;;;;13.43;10.82;;;;;;;;;;12815617;23;20009;-76
2022/03/11 08:27:29;;;;;;;14.75;11.45;;;;;;;;;;12813055;23;20036;-75
2022/03/11 08:32:30;;;;;;;;;;;;;;;;;;12812621;23;20060;-76
2022/03/11 08:37:31;;;;;;;13.65;10.68;;;;;;;;;;12812567;23;19928;-77
2022/03/11 08:42:32;;;;;;;;;;;;;;;;;;12812840;23;20040;-77
2022/03/11 08:47:57;;;;;;;12.27;9.73;;;;;;;;;;12821642;23;19900;-77
2022/03/11 08:53:06;;;;;;;13.30;10.35;;;;;;;;;;12833614;23;20008;-77
2022/03/11 08:58:21;;;;;;;16.10;11.60;;;;;;;;;;12835532;23;20008;-77
2022/03/11 09:03:23;;;;;;;14.48;10.95;;;;;;;;;;12797654;23;20016;-78
2022/03/11 09:08:44;;;;;;;19.45;13.93;;;;;;;;;;12827374;23;20438;-79
2022/03/11 09:13:59;;;;;;;14.23;11.38;;;;;;;;;;12812431;23;20017;-79
2022/03/11 09:19:01;;;;;;;14.45;11.85;;;;;;;;;;12810060;23;20013;-79
2022/03/11 09:24:04;;;;;;;14.77;11.73;;;;;;;;;;12812550;23;20005;-79
2022/03/11 09:29:09;;;;;;;15.90;13.05;;;;;;;;;;12810572;23;20008;-77
2022/03/11 09:34:10;;;;;;;;;;;;;;;;;;12806135;23;20307;-79
2022/03/11 09:39:11;;;;;;;16.25;12.00;;;;;;;;;;12802972;23;20348;-78
2022/03/11 09:44:15;;;;;;;16.42;12.52;;;;;;;;;;12803221;23;20012;-79
2022/03/11 09:49:16;;;;;;;15.68;11.95;;;;;;;;;;12801249;23;20005;-78
2022/03/11 09:54:18;;;;;;;15.38;11.27;;;;;;;;;;12803160;23;20334;-77
2022/03/11 09:59:19;;;;;;;18.67;14.07;;;;;;;;;;12802470;23;20005;-78
2022/03/11 10:04:21;;;;;;;17.92;13.18;;;;;;;;;;12798903;23;20001;-77
2022/03/11 10:09:22;;;;;;;15.43;10.75;;;;;;;;;;12803100;23;20353;-79
2022/03/11 10:14:23;;;;;;;;;;;;;;;;;;12805629;23;20013;-79
2022/03/11 10:19:24;;;;;;;18.38;13.15;;;;;;;;;;12809386;23;20343;-78
2022/03/11 10:24:26;;;;;;;16.17;12.35;;;;;;;;;;12807131;23;20005;-79
2022/03/11 10:29:32;;;;;;;16.00;12.75;;;;;;;;;;12808331;23;20009;-78
2022/03/11 10:34:35;;;;;;;16.02;11.43;;;;;;;;;;12811623;23;20005;-79
2022/03/11 10:39:38;;;;;;;16.38;12.18;;;;;;;;;;12805618;23;20084;-78
2022/03/11 10:44:40;;;;;;;17.65;12.77;;;;;;;;;;12807988;23;20009;-78
2022/03/11 10:49:49;;;;;;;17.98;13.00;;;;;;;;;;12806655;23;20353;-77
2022/03/11 10:54:52;;;;;;;17.05;11.65;;;;;;;;;;12805761;23;19998;-77
2022/03/11 11:00:17;;;;;;;19.80;12.93;;;;;;;;;;12808718;23;20069;-77
2022/03/11 11:05:22;;;;;;;15.10;11.32;;;;;;;;;;12806376;23;20001;-77
2022/03/11 11:10:24;;;;;;;16.90;11.48;;;;;;;;;;12802520;23;20089;-77
2022/03/11 11:15:26;;;;;;;19.48;13.00;;;;;;;;;;12801210;23;20330;-77
2022/03/11 11:20:40;;;;;;;15.48;11.00;;;;;;;;;;12802834;23;20007;-77
2022/03/11 11:25:43;;;;;;;18.70;12.75;;;;;;;;;;12803093;23;20310;-77
2022/03/11 11:30:45;;;;;;;15.82;11.23;;;;;;;;;;12808599;23;20005;-77
2022/03/11 11:35:48;;;;;;;15.05;11.60;;;;;;;;;;12807129;23;20002;-77
2022/03/11 11:40:49;;;;;;;16.05;11.90;;;;;;;;;;12804535;23;20013;-77
2022/03/11 11:45:50;;;;;;;;;;;;;;;;;;12803077;23;20032;-78
2022/03/11 11:50:53;;;;;;;14.68;10.80;;;;;;;;;;12806114;23;19987;-77
2022/03/11 11:55:54;;;;;;;19.73;13.25;;;;;;;;;;12805620;23;20489;-80
2022/03/11 12:00:56;;;;;;;17.48;13.75;;;;;;;;;;12804468;23;20024;-77
2022/03/11 12:05:57;;;;;;;16.85;12.82;;;;;;;;;;12800260;23;20118;-76
2022/03/11 12:10:57;;;;;;;;;;;;;;;;;;12801485;23;20337;-77
2022/03/11 12:15:59;;;;;;;18.77;13.32;;;;;;;;;;12801565;23;20006;-77
2022/03/11 12:21:00;;;;;;;16.55;12.15;;;;;;;;;;12809397;23;20088;-79
2022/03/11 12:26:08;;;;;;;14.95;11.98;;;;;;;;;;12809991;23;20016;-79
2022/03/11 12:31:21;;;;;;;18.70;13.63;;;;;;;;;;12811128;23;20019;-81
2022/03/11 12:36:24;;;;;;;16.08;11.90;;;;;;;;;;12821090;23;20036;-78
2022/03/11 12:41:27;;;;;;;12.10;9.27;;;;;;;;;;12819323;23;20008;-81
2022/03/11 12:46:28;;;;;;;15.52;11.02;;;;;;;;;;12822521;23;20005;-81
2022/03/11 12:51:30;;;;;;;14.57;11.82;;;;;;;;;;12824831;23;20013;-78
2022/03/11 12:56:32;;;;;;;15.23;11.82;;;;;;;;;;12820931;23;20007;-79
2022/03/11 13:01:33;;;;;;;16.73;10.20;;;;;;;;;;12823942;23;20064;-79
2022/03/11 13:06:34;;;;;;;14.90;11.73;;;;;;;;;;12823718;23;20005;-79
2022/03/11 13:11:35;;;;;;;14.50;11.48;;;;;;;;;;12819385;23;20099;-80
2022/03/11 13:16:36;;;;;;;12.98;9.48;;;;;;;;;;12829761;23;20033;-80
2022/03/11 13:21:40;;;;;;;12.98;9.75;;;;;;;;;;12828302;23;20087;-81
2022/03/11 13:26:41;;;;;;;13.82;11.10;;;;;;;;;;12825250;23;20016;-80
2022/03/11 13:31:42;;;;;;;12.77;9.65;;;;;;;;;;12833248;23;20005;-82
2022/03/11 13:36:44;;;;;;;12.35;9.82;;;;;;;;;;12836492;23;20005;-82
2022/03/11 13:41:50;;;;;;;11.40;9.43;;;;;;;;;;12831012;23;20009;-80
2022/03/11 13:46:52;;;;;;;14.45;11.05;;;;;;;;;;12826743;23;20076;-79
2022/03/11 13:51:57;;;;;;;19.55;15.05;;;;;;;;;;12824276;23;20421;-82
2022/03/11 13:57:14;;;;;;;14.82;11.43;;;;;;;;;;12816596;23;20024;-79
2022/03/11 14:02:22;;;;;;;13.75;10.07;;;;;;;;;;12824708;23;20017;-79
2022/03/11 14:07:24;;;;;;;13.52;10.73;;;;;;;;;;12813758;23;20001;-80
2022/03/11 14:12:26;;;;;;;16.23;11.85;;;;;;;;;;12819045;23;20115;-80
2022/03/11 14:17:31;;;;;;;11.80;9.75;;;;;;;;;;12818344;23;20036;-79
2022/03/11 14:22:33;;;;;;;14.68;10.65;;;;;;;;;;12816924;23;20060;-80
2022/03/11 14:27:34;;;;;;;14.02;10.68;;;;;;;;;;12826413;23;20010;-79
2022/03/11 14:32:41;;;;;;;13.52;9.60;;;;;;;;;;12822407;23;20009;-81
2022/03/11 14:37:48;;;;;;;16.15;12.05;;;;;;;;;;12821516;23;20009;-80
2022/03/11 14:42:49;;;;;;;12.77;9.75;;;;;;;;;;12804073;23;20009;-79
2022/03/11 14:47:50;;;;;;;10.32;9.00;;;;;;;;;;12819881;23;20192;-79
2022/03/11 14:52:51;;;;;;;15.13;10.82;;;;;;;;;;12826155;23;20457;-79
2022/03/11 14:57:53;;;;;;;13.90;10.18;;;;;;;;;;12825695;23;20008;-79
2022/03/11 15:02:54;;;;;;;11.68;9.23;;;;;;;;;;12828021;23;20024;-80
2022/03/11 15:08:04;;;;;;;13.60;9.70;;;;;;;;;;12828044;23;20412;-82
2022/03/11 15:13:06;;;;;;;;;;;;;;;;;;12826416;23;20013;-80
2022/03/11 15:18:07;;;;;;;11.65;8.65;;;;;;;;;;12823260;23;19959;-80
2022/03/11 15:23:08;;;;;;;13.13;9.75;;;;;;;;;;12822547;23;20009;-78
2022/03/11 15:28:09;;;;;;;11.27;8.75;;;;;;;;;;12822320;23;20009;-80
2022/03/11 15:33:10;;;;;;;14.48;10.75;;;;;;;;;;12828184;23;20548;-80
2022/03/11 15:38:11;;;;;;;10.75;8.35;;;;;;;;;;12827335;23;20001;-80
2022/03/11 15:43:13;;;;;;;13.73;10.55;;;;;;;;;;12826467;23;20023;-79
2022/03/11 15:48:16;;;;;;;11.82;9.07;;;;;;;;;;12829494;23;20452;-79
2022/03/11 15:53:17;;;;;;;14.32;10.38;;;;;;;;;;12829494;23;20064;-79
2022/03/11 15:58:18;;;;;;;14.85;9.63;;;;;;;;;;12827914;23;20001;-80
2022/03/11 16:03:19;;;;;;;13.18;9.20;;;;;;;;;;12824231;23;20004;-80
2022/03/11 16:08:20;;;;;;;14.77;9.68;;;;;;;;;;12828697;23;20056;-77
2022/03/11 16:13:21;;;;;;;9.73;7.80;;;;;;;;;;12834493;23;20012;-80
2022/03/11 16:18:22;;;;;;;21.40;11.27;;;;;;;;;;12830361;23;20009;-78
2022/03/11 16:23:23;;;;;;;11.63;8.27;;;;;;;;;;12824591;23;20005;-79
2022/03/11 16:28:24;;;;;;;12.02;8.43;;;;;;;;;;12827535;23;20005;-79
2022/03/11 16:33:25;;;;;;;9.52;7.95;;;;;;;;;;12833877;23;20001;-81
2022/03/11 16:38:26;;;;;;;9.15;6.97;;;;;;;;;;12830597;23;20009;-81
2022/03/11 16:43:27;;;;;;;9.77;6.78;;;;;;;;;;12824103;23;20072;-83
2022/03/11 16:48:29;;;;;;;9.93;7.13;;;;;;;;;;12822619;23;20005;-85
2022/03/11 16:53:30;;;;;;;10.45;7.75;;;;;;;;;;12824229;23;20024;-82
2022/03/11 17:15:41;;;;;;;;;;;;;;;;;;;;;
2022/03/11 17:25:59;;;;;;;;;;;;;;;;;;12804262;22;20068;-84
2022/03/11 17:42:05;;;;;;;8.98;7.53;;;;;;;;;;12949803;23;20013;-83
2022/03/11 17:59:03;;;;;;;8.45;7.03;;;;;;;;;;12881235;23;20394;-84
2022/03/11 18:04:43;;;;;;;10.32;8.57;;;;;;;;;;12574165;23;20017;-83
2022/03/11 18:21:09;;;;;;;8.70;6.93;;;;;;;;;;12832648;23;20035;-83
2022/03/11 18:26:10;;;;;;;10.80;8.52;;;;;;;;;;12895719;23;20000;-84
2022/03/11 18:31:11;;;;;;;11.15;8.43;;;;;;;;;;12892987;23;20009;-83
2022/03/11 18:36:12;;;;;;;10.10;8.25;;;;;;;;;;12894363;23;20035;-82
2022/03/11 18:41:13;;;;;;;10.13;6.80;;;;;;;;;;12924558;22;20016;-82
2022/03/11 18:46:14;;;;;;;12.43;9.10;;;;;;;;;;12930979;23;20011;-82
2022/03/11 18:51:15;;;;;;;8.50;7.38;;;;;;;;;;12869840;23;20048;-84
2022/03/11 18:56:17;;;;;;;8.32;7.28;;;;;;;;;;12898718;23;20031;-83
2022/03/11 19:01:18;;;;;;;9.93;7.82;;;;;;;;;;12949520;22;20019;-85
2022/03/11 19:06:19;;;;;;;9.32;7.15;;;;;;;;;;12995251;22;20034;-83
2022/03/11 19:11:21;;;;;;;9.05;7.68;;;;;;;;;;12852362;23;20024;-83
2022/03/11 19:16:23;;;;;;;7.65;6.40;;;;;;;;;;12828439;23;20098;-83
2022/03/11 19:21:26;;;;;;;8.82;7.38;;;;;;;;;;12833023;23;20064;-82
2022/03/11 19:26:29;;;;;;;8.18;7.32;;;;;;;;;;12834606;23;20020;-82
2022/03/11 19:31:37;;;;;;;12.65;9.82;;;;;;;;;;12836417;23;20013;-82
2022/03/11 19:36:38;;;;;;;10.63;8.73;;;;;;;;;;12832689;23;20179;-82
2022/03/11 19:41:39;;;;;;;9.88;7.88;;;;;;;;;;12820433;23;20047;-82
2022/03/11 19:46:42;;;;;;;9.43;7.60;;;;;;;;;;12896350;23;20000;-82
2022/03/11 19:51:44;;;;;;;11.32;7.53;;;;;;;;;;12896763;23;20012;-82
2022/03/11 19:56:45;;;;;;;7.65;6.68;;;;;;;;;;12899900;23;20043;-82
2022/03/11 20:01:45;;;;;;;11.35;8.50;;;;;;;;;;12896755;23;20032;-82
2022/03/11 20:06:47;;;;;;;13.10;8.77;;;;;;;;;;12897170;23;20001;-84
2022/03/11 20:11:48;;;;;;;7.50;6.55;;;;;;;;;;12900105;23;20440;-83
2022/03/11 20:16:50;;;;;;;8.40;6.70;;;;;;;;;;12915915;23;20012;-81
2022/03/11 20:21:56;;;;;;;7.60;6.13;;;;;;;;;;12863291;22;20008;-82
